createdAt,value
2023-04-08T00:00:37.817Z,65.08
2023-04-08T00:01:37.852Z,65.08
2023-04-08T00:02:38.001Z,65.08
2023-04-08T00:03:37.945Z,65.36
2023-04-08T00:04:37.966Z,65.08
2023-04-08T00:05:37.773Z,65.11
2023-04-08T00:06:37.789Z,65.36
2023-04-08T00:07:37.774Z,65.08
2023-04-08T00:08:37.778Z,65.46
2023-04-08T00:09:37.764Z,65.08
2023-04-08T00:10:37.810Z,65.36
2023-04-08T00:11:37.762Z,65.36
2023-04-08T00:12:37.768Z,65.26
2023-04-08T00:13:37.739Z,65.26
2023-04-08T00:14:37.729Z,65.36
2023-04-08T00:15:37.739Z,65.26
2023-04-08T00:16:37.809Z,65.39
2023-04-08T00:17:37.795Z,65.17
2023-04-08T00:18:37.716Z,65.26
2023-04-08T00:19:37.748Z,65.17
2023-04-08T00:20:37.725Z,65.26
2023-04-08T00:21:37.748Z,65.17
2023-04-08T00:22:37.709Z,65.08
2023-04-08T00:23:37.699Z,65.17
2023-04-08T00:24:37.704Z,64.98
2023-04-08T00:25:37.688Z,65.01
2023-04-08T00:26:37.702Z,65.26
2023-04-08T00:27:37.676Z,65.08
2023-04-08T00:28:37.680Z,65.11
2023-04-08T00:29:37.675Z,65.08
2023-04-08T00:30:37.707Z,64.89
2023-04-08T00:31:37.664Z,65.20
2023-04-08T00:32:37.755Z,65.17
2023-04-08T00:33:37.660Z,65.17
2023-04-08T00:34:37.647Z,64.92
2023-04-08T00:35:37.701Z,65.26
2023-04-08T00:36:37.638Z,64.89
2023-04-08T00:37:37.642Z,64.98
2023-04-08T00:38:37.642Z,64.98
2023-04-08T00:39:37.645Z,65.20
2023-04-08T00:40:37.635Z,64.98
2023-04-08T00:41:37.609Z,64.89
2023-04-08T00:42:37.658Z,64.98
2023-04-08T00:43:37.630Z,64.89
2023-04-08T00:44:37.606Z,64.89
2023-04-08T00:45:37.604Z,64.82
2023-04-08T00:46:37.636Z,64.98
2023-04-08T00:47:37.628Z,64.98
2023-04-08T00:48:37.601Z,64.98
2023-04-08T00:49:37.591Z,64.98
2023-04-08T00:50:37.584Z,64.98
2023-04-08T00:51:37.584Z,64.89
2023-04-08T00:52:37.579Z,64.89
2023-04-08T00:53:37.590Z,65.01
2023-04-08T00:54:37.577Z,64.89
2023-04-08T00:55:37.555Z,64.79
2023-04-08T00:56:37.570Z,64.89
2023-04-08T00:57:37.569Z,65.01
2023-04-08T00:58:37.579Z,64.79
2023-04-08T00:59:37.549Z,64.98
2023-04-08T01:00:37.558Z,64.79
2023-04-08T01:01:37.617Z,64.89
2023-04-08T01:02:37.640Z,64.89
2023-04-08T01:03:37.679Z,65.17
2023-04-08T01:04:37.538Z,64.89
2023-04-08T01:05:37.522Z,64.79
2023-04-08T01:06:37.534Z,64.89
2023-04-08T01:07:37.520Z,64.89
2023-04-08T01:08:37.508Z,64.89
2023-04-08T01:09:37.501Z,65.17
2023-04-08T01:10:37.503Z,65.17
2023-04-08T01:11:37.492Z,65.17
2023-04-08T01:12:37.490Z,64.98
2023-04-08T01:13:37.526Z,65.20
2023-04-08T01:14:37.503Z,64.89
2023-04-08T01:15:37.516Z,65.17
2023-04-08T01:16:37.469Z,65.17
2023-04-08T01:17:37.512Z,65.17
2023-04-08T01:18:37.503Z,65.17
2023-04-08T01:19:37.453Z,65.20
2023-04-08T01:20:37.462Z,64.98
2023-04-08T01:21:37.473Z,65.08
2023-04-08T01:22:37.451Z,65.17
2023-04-08T01:23:37.450Z,64.79
2023-04-08T01:24:37.445Z,65.20
2023-04-08T01:25:37.445Z,65.17
2023-04-08T01:26:37.424Z,64.98
2023-04-08T01:27:37.438Z,65.17
2023-04-08T01:28:37.411Z,64.98
2023-04-08T01:29:37.428Z,64.98
2023-04-08T01:30:37.444Z,64.89
2023-04-08T01:31:37.513Z,65.17
2023-04-08T01:32:37.457Z,64.89
2023-04-08T01:33:37.407Z,64.92
2023-04-08T01:34:37.391Z,64.89
2023-04-08T01:35:37.413Z,64.89
2023-04-08T01:36:37.386Z,65.17
2023-04-08T01:37:37.394Z,64.98
2023-04-08T01:38:37.400Z,65.17
2023-04-08T01:39:37.385Z,65.17
2023-04-08T01:40:37.363Z,65.17
2023-04-08T01:41:37.388Z,65.11
2023-04-08T01:42:37.367Z,65.08
2023-04-08T01:43:37.370Z,65.08
2023-04-08T01:44:37.354Z,65.20
2023-04-08T01:45:37.354Z,64.98
2023-04-08T01:46:37.422Z,65.17
2023-04-08T01:47:37.415Z,64.98
2023-04-08T01:48:37.350Z,65.08
2023-04-08T01:49:37.343Z,65.08
2023-04-08T01:50:37.341Z,65.17
2023-04-08T01:51:37.749Z,64.98
2023-04-08T01:52:37.327Z,65.11
2023-04-08T01:53:37.308Z,65.08
2023-04-08T01:54:37.306Z,65.08
2023-04-08T01:55:37.315Z,64.98
2023-04-08T01:56:37.313Z,65.08
2023-04-08T01:57:37.314Z,65.08
2023-04-08T01:58:37.302Z,64.98
2023-04-08T01:59:37.293Z,64.98
2023-04-08T02:00:37.293Z,64.98
2023-04-08T02:01:37.337Z,65.17
2023-04-08T02:02:37.455Z,65.01
2023-04-08T02:03:37.521Z,64.98
2023-04-08T02:04:37.385Z,65.01
2023-04-08T02:05:37.286Z,65.26
2023-04-08T02:06:37.250Z,64.89
2023-04-08T02:07:37.251Z,64.98
2023-04-08T02:08:37.261Z,65.11
2023-04-08T02:09:37.260Z,64.98
2023-04-08T02:10:37.249Z,65.08
2023-04-08T02:11:37.255Z,65.08
2023-04-08T02:12:37.230Z,65.17
2023-04-08T02:13:37.224Z,65.08
2023-04-08T02:14:37.230Z,64.98
2023-04-08T02:15:37.228Z,65.17
2023-04-08T02:16:37.270Z,64.98
2023-04-08T02:17:37.244Z,65.08
2023-04-08T02:18:37.343Z,65.36
2023-04-08T02:19:37.200Z,65.17
2023-04-08T02:20:37.211Z,65.17
2023-04-08T02:21:37.198Z,65.26
2023-04-08T02:22:37.199Z,64.89
2023-04-08T02:23:37.192Z,65.26
2023-04-08T02:24:37.194Z,65.36
2023-04-08T02:25:37.209Z,65.36
2023-04-08T02:26:37.188Z,65.26
2023-04-08T02:27:37.172Z,65.17
2023-04-08T02:28:37.153Z,65.26
2023-04-08T02:29:37.158Z,64.98
2023-04-08T02:30:37.164Z,65.30
2023-04-08T02:31:37.216Z,65.17
2023-04-08T02:32:37.192Z,65.08
2023-04-08T02:33:37.159Z,65.26
2023-04-08T02:34:37.174Z,65.08
2023-04-08T02:35:37.190Z,65.26
2023-04-08T02:36:37.140Z,65.17
2023-04-08T02:37:37.143Z,65.17
2023-04-08T02:38:37.127Z,65.08
2023-04-08T02:39:37.128Z,65.17
2023-04-08T02:40:37.125Z,65.26
2023-04-08T02:41:37.130Z,65.26
2023-04-08T02:42:37.108Z,65.26
2023-04-08T02:43:37.111Z,65.17
2023-04-08T02:44:37.088Z,65.08
2023-04-08T02:45:37.140Z,65.26
2023-04-08T02:46:37.091Z,65.17
2023-04-08T02:47:37.092Z,65.36
2023-04-08T02:48:37.095Z,65.17
2023-04-08T02:49:37.071Z,65.36
2023-04-08T02:50:37.100Z,65.17
2023-04-08T02:51:37.091Z,65.36
2023-04-08T02:52:37.057Z,65.26
2023-04-08T02:53:37.067Z,65.17
2023-04-08T02:54:37.061Z,65.08
2023-04-08T02:55:37.053Z,65.08
2023-04-08T02:56:37.058Z,65.17
2023-04-08T02:57:37.074Z,65.17
2023-04-08T02:58:37.041Z,65.08
2023-04-08T02:59:37.037Z,65.26
2023-04-08T03:00:37.100Z,65.17
2023-04-08T03:01:37.124Z,64.98
2023-04-08T03:02:37.143Z,65.08
2023-04-08T03:03:37.170Z,65.17
2023-04-08T03:04:37.011Z,65.17
2023-04-08T03:05:37.018Z,65.17
2023-04-08T03:06:37.036Z,65.30
2023-04-08T03:07:37.011Z,65.17
2023-04-08T03:08:36.991Z,65.17
2023-04-08T03:09:36.997Z,65.08
2023-04-08T03:10:36.989Z,64.98
2023-04-08T03:11:36.979Z,65.20
2023-04-08T03:12:36.985Z,64.98
2023-04-08T03:13:36.979Z,65.08
2023-04-08T03:14:36.976Z,65.26
2023-04-08T03:15:36.965Z,65.17
2023-04-08T03:16:36.967Z,65.17
2023-04-08T03:17:36.982Z,65.17
2023-04-08T03:18:36.947Z,65.26
2023-04-08T03:19:36.955Z,65.20
2023-04-08T03:20:36.933Z,65.26
2023-04-08T03:21:36.939Z,65.08
2023-04-08T03:22:36.943Z,65.11
2023-04-08T03:23:36.939Z,65.17
2023-04-08T03:24:36.932Z,64.98
2023-04-08T03:25:36.926Z,65.20
2023-04-08T03:26:36.914Z,65.08
2023-04-08T03:27:36.918Z,65.08
2023-04-08T03:28:36.908Z,65.26
2023-04-08T03:29:36.914Z,65.17
2023-04-08T03:30:36.897Z,65.17
2023-04-08T03:31:36.939Z,65.17
2023-04-08T03:32:36.922Z,65.17
2023-04-08T03:33:36.891Z,64.98
2023-04-08T03:34:36.871Z,65.17
2023-04-08T03:35:36.901Z,64.98
2023-04-08T03:36:36.867Z,65.26
2023-04-08T03:37:36.974Z,65.17
2023-04-08T03:38:36.867Z,65.17
2023-04-08T03:39:36.868Z,65.26
2023-04-08T03:40:36.856Z,65.26
2023-04-08T03:41:36.851Z,65.36
2023-04-08T03:42:36.848Z,65.17
2023-04-08T03:43:38.031Z,65.26
2023-04-08T03:44:36.825Z,65.26
2023-04-08T03:45:36.870Z,65.17
2023-04-08T03:46:36.821Z,65.17
2023-04-08T03:47:36.842Z,65.20
2023-04-08T03:48:36.808Z,65.36
2023-04-08T03:49:36.824Z,65.26
2023-04-08T03:50:36.801Z,65.36
2023-04-08T03:51:36.811Z,65.26
2023-04-08T03:52:36.812Z,65.17
2023-04-08T03:53:36.825Z,65.17
2023-04-08T03:54:36.834Z,64.98
2023-04-08T03:55:36.794Z,65.36
2023-04-08T03:56:36.775Z,65.17
2023-04-08T03:57:36.789Z,65.08
2023-04-08T03:58:36.759Z,64.98
2023-04-08T03:59:36.772Z,64.98
2023-04-08T04:00:36.774Z,65.17
2023-04-08T04:01:36.799Z,65.08
2023-04-08T04:02:36.939Z,64.98
2023-04-08T04:03:36.890Z,65.17
2023-04-08T04:04:36.809Z,65.20
2023-04-08T04:05:36.748Z,65.36
2023-04-08T04:06:36.751Z,65.08
2023-04-08T04:07:36.751Z,65.08
2023-04-08T04:08:36.738Z,64.98
2023-04-08T04:09:36.735Z,64.98
2023-04-08T04:10:36.731Z,65.08
2023-04-08T04:11:36.715Z,64.98
2023-04-08T04:12:36.719Z,65.17
2023-04-08T04:13:36.707Z,64.89
2023-04-08T04:14:36.693Z,65.17
2023-04-08T04:15:36.738Z,65.08
2023-04-08T04:16:36.703Z,65.17
2023-04-08T04:17:36.713Z,65.08
2023-04-08T04:18:36.685Z,65.17
2023-04-08T04:19:36.697Z,65.17
2023-04-08T04:20:36.683Z,65.17
2023-04-08T04:21:36.665Z,65.17
2023-04-08T04:22:36.668Z,65.20
2023-04-08T04:23:36.650Z,64.89
2023-04-08T04:24:36.652Z,64.98
2023-04-08T04:25:36.653Z,65.17
2023-04-08T04:26:36.679Z,65.08
2023-04-08T04:27:36.638Z,64.98
2023-04-08T04:28:36.646Z,64.98
2023-04-08T04:29:36.637Z,64.98
2023-04-08T04:30:36.630Z,64.89
2023-04-08T04:31:36.680Z,64.89
2023-04-08T04:32:36.650Z,65.17
2023-04-08T04:33:36.619Z,65.17
2023-04-08T04:34:36.613Z,65.17
2023-04-08T04:35:36.668Z,65.17
2023-04-08T04:36:36.595Z,64.98
2023-04-08T04:37:36.607Z,64.98
2023-04-08T04:38:36.585Z,64.98
2023-04-08T04:39:36.605Z,65.17
2023-04-08T04:40:36.588Z,64.98
2023-04-08T04:41:36.587Z,64.98
2023-04-08T04:42:36.608Z,65.17
2023-04-08T04:43:36.564Z,65.17
2023-04-08T04:44:36.577Z,65.08
2023-04-08T04:45:36.558Z,65.17
2023-04-08T04:46:36.606Z,65.17
2023-04-08T04:47:36.629Z,65.17
2023-04-08T04:48:36.550Z,65.17
2023-04-08T04:49:36.556Z,65.17
2023-04-08T04:50:36.557Z,65.17
2023-04-08T04:51:36.539Z,65.17
2023-04-08T04:52:36.540Z,64.89
2023-04-08T04:53:36.535Z,64.79
2023-04-08T04:54:36.523Z,64.89
2023-04-08T04:55:38.697Z,64.89
2023-04-08T04:56:36.521Z,65.01
2023-04-08T04:57:36.504Z,64.98
2023-04-08T04:58:36.547Z,64.89
2023-04-08T04:59:36.518Z,65.17
2023-04-08T05:00:36.510Z,64.98
2023-04-08T05:01:36.565Z,65.26
2023-04-08T05:02:36.740Z,64.98
2023-04-08T05:03:36.510Z,64.98
2023-04-08T05:04:36.504Z,64.89
2023-04-08T05:05:36.492Z,64.89
2023-04-08T05:06:36.468Z,64.89
2023-04-08T05:07:36.493Z,64.89
2023-04-08T05:08:36.462Z,64.79
2023-04-08T05:09:36.465Z,64.89
2023-04-08T05:10:36.471Z,64.98
2023-04-08T05:11:36.455Z,64.79
2023-04-08T05:12:36.453Z,64.69
2023-04-08T05:13:36.458Z,64.98
2023-04-08T05:14:36.463Z,64.98
2023-04-08T05:15:36.445Z,65.17
2023-04-08T05:16:36.520Z,64.89
2023-04-08T05:17:36.462Z,64.89
2023-04-08T05:18:36.431Z,64.89
2023-04-08T05:19:36.420Z,65.17
2023-04-08T05:20:36.428Z,64.89
2023-04-08T05:21:36.432Z,64.89
2023-04-08T05:22:36.420Z,64.98
2023-04-08T05:23:36.398Z,64.79
2023-04-08T05:24:36.422Z,64.98
2023-04-08T05:25:36.407Z,64.98
2023-04-08T05:26:36.389Z,65.17
2023-04-08T05:27:36.380Z,64.89
2023-04-08T05:28:36.402Z,64.79
2023-04-08T05:29:36.390Z,64.89
2023-04-08T05:30:36.396Z,64.89
2023-04-08T05:31:36.424Z,64.79
2023-04-08T05:32:36.386Z,64.98
2023-04-08T05:33:36.365Z,64.89
2023-04-08T05:34:36.355Z,64.79
2023-04-08T05:35:36.400Z,64.98
2023-04-08T05:36:36.357Z,64.98
2023-04-08T05:37:36.345Z,64.98
2023-04-08T05:38:36.347Z,64.89
2023-04-08T05:39:36.413Z,64.98
2023-04-08T05:40:36.328Z,65.26
2023-04-08T05:41:36.321Z,65.17
2023-04-08T05:42:36.337Z,64.89
2023-04-08T05:43:36.320Z,64.89
2023-04-08T05:44:36.324Z,65.26
2023-04-08T05:45:36.328Z,65.17
2023-04-08T05:46:36.370Z,65.26
2023-04-08T05:47:36.327Z,65.26
2023-04-08T05:48:36.291Z,65.26
2023-04-08T05:49:36.290Z,64.98
2023-04-08T05:50:36.302Z,65.08
2023-04-08T05:51:36.284Z,65.26
2023-04-08T05:52:36.295Z,64.98
2023-04-08T05:53:36.259Z,65.17
2023-04-08T05:54:36.276Z,64.89
2023-04-08T05:55:36.255Z,65.26
2023-04-08T05:56:36.260Z,65.36
2023-04-08T05:57:36.264Z,65.36
2023-04-08T05:58:36.255Z,65.17
2023-04-08T05:59:36.232Z,65.17
2023-04-08T06:00:36.238Z,65.26
2023-04-08T06:01:36.322Z,65.26
2023-04-08T06:02:36.410Z,65.46
2023-04-08T06:03:36.414Z,65.26
2023-04-08T06:04:36.308Z,65.46
2023-04-08T06:05:36.228Z,65.08
2023-04-08T06:06:36.210Z,65.46
2023-04-08T06:07:36.198Z,65.08
2023-04-08T06:08:36.189Z,65.46
2023-04-08T06:09:36.209Z,65.08
2023-04-08T06:10:36.218Z,65.46
2023-04-08T06:11:36.202Z,65.36
2023-04-08T06:12:36.194Z,65.17
2023-04-08T06:13:36.181Z,65.36
2023-04-08T06:14:36.171Z,65.46
2023-04-08T06:15:36.178Z,65.17
2023-04-08T06:16:36.194Z,65.08
2023-04-08T06:17:36.185Z,65.08
2023-04-08T06:18:36.196Z,64.98
2023-04-08T06:19:36.150Z,65.08
2023-04-08T06:20:36.140Z,65.26
2023-04-08T06:21:36.148Z,65.36
2023-04-08T06:22:36.145Z,64.98
2023-04-08T06:23:36.146Z,65.26
2023-04-08T06:24:36.118Z,64.79
2023-04-08T06:25:36.112Z,65.17
2023-04-08T06:26:36.115Z,64.89
2023-04-08T06:27:36.123Z,65.36
2023-04-08T06:28:36.311Z,65.17
2023-04-08T06:29:36.095Z,65.08
2023-04-08T06:30:36.096Z,65.11
2023-04-08T06:31:36.122Z,65.20
2023-04-08T06:32:36.134Z,64.53
2023-04-08T06:33:36.106Z,64.72
2023-04-08T06:34:36.109Z,64.92
2023-04-08T06:35:36.132Z,64.92
2023-04-08T06:36:36.070Z,64.92
2023-04-08T06:37:36.117Z,64.43
2023-04-08T06:38:36.091Z,64.82
2023-04-08T06:39:36.053Z,65.01
2023-04-08T06:40:36.052Z,64.72
2023-04-08T06:41:36.068Z,65.01
2023-04-08T06:42:36.050Z,64.53
2023-04-08T06:43:36.040Z,64.53
2023-04-08T06:44:36.036Z,64.43
2023-04-08T06:45:36.121Z,64.34
2023-04-08T06:46:36.043Z,64.76
2023-04-08T06:47:36.084Z,64.56
2023-04-08T06:48:36.040Z,64.82
2023-04-08T06:49:36.026Z,64.28
2023-04-08T06:50:36.173Z,64.37
2023-04-08T06:51:36.035Z,64.28
2023-04-08T06:52:35.999Z,64.47
2023-04-08T06:53:36.031Z,64.37
2023-04-08T06:54:36.007Z,63.99
2023-04-08T06:55:36.010Z,64.28
2023-04-08T06:56:36.020Z,64.47
2023-04-08T06:57:36.003Z,64.47
2023-04-08T06:58:36.004Z,64.18
2023-04-08T06:59:35.992Z,64.28
2023-04-08T07:00:35.991Z,63.79
2023-04-08T07:01:36.055Z,63.70
2023-04-08T07:02:36.096Z,63.70
2023-04-08T07:03:36.121Z,63.89
2023-04-08T07:04:35.968Z,63.70
2023-04-08T07:05:35.964Z,63.70
2023-04-08T07:06:35.984Z,63.60
2023-04-08T07:07:35.955Z,63.70
2023-04-08T07:08:36.056Z,63.60
2023-04-08T07:09:35.953Z,63.51
2023-04-08T07:10:35.960Z,63.70
2023-04-08T07:11:35.950Z,63.60
2023-04-08T07:12:35.942Z,63.73
2023-04-08T07:13:35.926Z,63.54
2023-04-08T07:14:35.948Z,63.70
2023-04-08T07:15:35.924Z,63.79
2023-04-08T07:16:36.007Z,63.83
2023-04-08T07:17:35.997Z,63.64
2023-04-08T07:18:35.919Z,63.35
2023-04-08T07:19:35.920Z,63.45
2023-04-08T07:20:35.926Z,63.35
2023-04-08T07:21:35.937Z,63.35
2023-04-08T07:22:35.937Z,63.45
2023-04-08T07:23:35.925Z,63.54
2023-04-08T07:24:35.914Z,63.54
2023-04-08T07:25:35.918Z,63.73
2023-04-08T07:26:35.901Z,63.83
2023-04-08T07:27:35.917Z,63.73
2023-04-08T07:28:35.912Z,63.64
2023-04-08T07:29:35.882Z,63.45
2023-04-08T07:30:35.916Z,63.16
2023-04-08T07:31:35.895Z,63.25
2023-04-08T07:32:35.928Z,63.16
2023-04-08T07:33:35.884Z,63.45
2023-04-08T07:34:35.864Z,63.16
2023-04-08T07:35:35.906Z,62.90
2023-04-08T07:36:35.883Z,63.09
2023-04-08T07:37:35.866Z,63.28
2023-04-08T07:38:35.888Z,62.81
2023-04-08T07:39:35.866Z,62.90
2023-04-08T07:40:35.862Z,63.28
2023-04-08T07:41:35.849Z,62.99
2023-04-08T07:42:35.863Z,63.09
2023-04-08T07:43:35.862Z,62.81
2023-04-08T07:44:35.855Z,62.81
2023-04-08T07:45:35.841Z,62.90
2023-04-08T07:46:35.879Z,63.19
2023-04-08T07:47:35.876Z,62.90
2023-04-08T07:48:35.853Z,62.81
2023-04-08T07:49:35.835Z,62.90
2023-04-08T07:50:35.849Z,62.93
2023-04-08T07:51:35.827Z,62.90
2023-04-08T07:52:35.818Z,62.93
2023-04-08T07:53:35.881Z,63.02
2023-04-08T07:54:35.847Z,63.22
2023-04-08T07:55:35.825Z,63.32
2023-04-08T07:56:35.814Z,63.19
2023-04-08T07:57:35.797Z,62.81
2023-04-08T07:58:35.916Z,63.41
2023-04-08T07:59:35.802Z,62.99
2023-04-08T08:00:35.793Z,63.12
2023-04-08T08:01:35.859Z,63.41
2023-04-08T08:02:35.825Z,63.32
2023-04-08T08:03:35.917Z,63.09
2023-04-08T08:04:35.964Z,63.28
2023-04-08T08:05:35.781Z,63.28
2023-04-08T08:06:35.844Z,63.48
2023-04-08T08:07:35.779Z,63.70
2023-04-08T08:08:35.786Z,63.67
2023-04-08T08:09:35.792Z,63.57
2023-04-08T08:10:35.792Z,63.48
2023-04-08T08:11:35.775Z,63.48
2023-04-08T08:12:35.777Z,63.28
2023-04-08T08:13:35.784Z,63.86
2023-04-08T08:14:35.787Z,63.86
2023-04-08T08:15:35.780Z,63.76
2023-04-08T08:16:35.910Z,63.48
2023-04-08T08:17:35.760Z,63.67
2023-04-08T08:18:35.766Z,63.86
2023-04-08T08:19:35.737Z,63.96
2023-04-08T08:20:35.735Z,63.86
2023-04-08T08:21:35.747Z,63.96
2023-04-08T08:22:41.805Z,64.15
2023-04-08T08:23:35.744Z,64.25
2023-04-08T08:24:35.749Z,64.34
2023-04-08T08:25:35.752Z,64.53
2023-04-08T08:26:35.767Z,64.25
2023-04-08T08:27:35.717Z,64.34
2023-04-08T08:28:35.745Z,64.05
2023-04-08T08:29:35.726Z,64.43
2023-04-08T08:30:35.738Z,64.63
2023-04-08T08:31:35.845Z,64.43
2023-04-08T08:32:35.737Z,64.34
2023-04-08T08:33:35.757Z,64.34
2023-04-08T08:34:35.714Z,64.34
2023-04-08T08:35:35.731Z,64.25
2023-04-08T08:36:35.724Z,64.34
2023-04-08T08:37:35.689Z,64.72
2023-04-08T08:38:35.704Z,64.92
2023-04-08T08:39:35.694Z,64.72
2023-04-08T08:40:35.702Z,64.53
2023-04-08T08:41:35.710Z,64.63
2023-04-08T08:42:35.713Z,64.63
2023-04-08T08:43:35.670Z,64.72
2023-04-08T08:44:35.693Z,64.72
2023-04-08T08:45:35.706Z,64.53
2023-04-08T08:46:35.849Z,65.11
2023-04-08T08:47:35.683Z,65.11
2023-04-08T08:48:35.688Z,65.01
2023-04-08T08:49:35.668Z,64.82
2023-04-08T08:50:35.672Z,64.92
2023-04-08T08:51:35.686Z,64.69
2023-04-08T08:52:35.665Z,64.92
2023-04-08T08:53:36.248Z,64.92
2023-04-08T08:54:35.659Z,64.63
2023-04-08T08:55:50.882Z,65.40
2023-04-08T08:56:35.653Z,65.20
2023-04-08T08:57:35.650Z,65.20
2023-04-08T08:58:35.696Z,65.11
2023-04-08T08:59:35.626Z,65.20
2023-04-08T09:00:35.650Z,64.98
2023-04-08T09:01:35.897Z,64.63
2023-04-08T09:02:35.776Z,64.92
2023-04-08T09:03:35.809Z,64.98
2023-04-08T09:04:35.701Z,64.98
2023-04-08T09:05:35.825Z,65.36
2023-04-08T09:06:35.620Z,64.59
2023-04-08T09:07:35.635Z,64.59
2023-04-08T09:08:35.627Z,65.08
2023-04-08T09:09:35.604Z,65.08
2023-04-08T09:10:35.612Z,64.59
2023-04-08T09:11:35.604Z,64.59
2023-04-08T09:12:35.637Z,65.17
2023-04-08T09:13:35.591Z,65.36
2023-04-08T09:14:35.604Z,65.27
2023-04-08T09:15:35.592Z,65.27
2023-04-08T09:16:35.683Z,65.27
2023-04-08T09:17:35.604Z,65.17
2023-04-08T09:18:35.575Z,64.98
2023-04-08T09:19:35.573Z,65.36
2023-04-08T09:20:35.587Z,65.27
2023-04-08T09:21:35.563Z,65.17
2023-04-08T09:22:35.584Z,65.46
2023-04-08T09:23:35.582Z,65.27
2023-04-08T09:24:35.556Z,65.08
2023-04-08T09:25:35.574Z,65.27
2023-04-08T09:26:35.545Z,65.36
2023-04-08T09:27:35.568Z,65.17
2023-04-08T09:28:35.574Z,65.08
2023-04-08T09:29:38.287Z,65.36
2023-04-08T09:30:35.562Z,65.08
2023-04-08T09:31:35.554Z,65.46
2023-04-08T09:32:35.553Z,65.17
2023-04-08T09:33:35.535Z,64.98
2023-04-08T09:34:35.538Z,64.98
2023-04-08T09:35:35.564Z,64.98
2023-04-08T09:36:35.512Z,65.08
2023-04-08T09:37:35.519Z,64.89
2023-04-08T09:38:35.530Z,64.89
2023-04-08T09:39:35.515Z,64.89
2023-04-08T09:40:35.530Z,64.98
2023-04-08T09:41:35.520Z,65.17
2023-04-08T09:42:35.514Z,65.36
2023-04-08T09:43:35.514Z,65.08
2023-04-08T09:44:35.513Z,65.36
2023-04-08T09:45:35.554Z,65.17
2023-04-08T09:46:35.507Z,65.46
2023-04-08T09:47:35.515Z,65.56
2023-04-08T09:48:35.502Z,65.17
2023-04-08T09:49:35.494Z,65.65
2023-04-08T09:50:35.490Z,65.56
2023-04-08T09:51:35.485Z,65.56
2023-04-08T09:52:35.464Z,65.65
2023-04-08T09:53:35.474Z,65.65
2023-04-08T09:54:35.471Z,65.84
2023-04-08T09:55:35.484Z,66.03
2023-04-08T09:56:35.452Z,66.03
2023-04-08T09:57:35.473Z,65.84
2023-04-08T09:58:35.462Z,65.65
2023-04-08T09:59:35.452Z,65.94
2023-04-08T10:00:35.436Z,65.75
2023-04-08T10:01:35.561Z,65.56
2023-04-08T10:02:35.704Z,65.75
2023-04-08T10:03:35.588Z,65.75
2023-04-08T10:04:35.495Z,65.65
2023-04-08T10:05:35.477Z,65.56
2023-04-08T10:06:35.442Z,65.56
2023-04-08T10:07:35.417Z,65.75
2023-04-08T10:08:35.434Z,65.84
2023-04-08T10:09:35.411Z,65.75
2023-04-08T10:10:35.414Z,65.84
2023-04-08T10:11:35.417Z,65.75
2023-04-08T10:12:35.423Z,66.03
2023-04-08T10:13:35.390Z,65.56
2023-04-08T10:14:35.409Z,65.65
2023-04-08T10:15:35.393Z,65.65
2023-04-08T10:16:35.415Z,65.65
2023-04-08T10:17:35.434Z,65.65
2023-04-08T10:18:35.413Z,66.03
2023-04-08T10:19:35.411Z,66.03
2023-04-08T10:20:35.389Z,65.56
2023-04-08T10:21:35.389Z,65.56
2023-04-08T10:22:35.390Z,65.84
2023-04-08T10:23:35.379Z,66.03
2023-04-08T10:24:35.360Z,65.84
2023-04-08T10:25:35.400Z,65.75
2023-04-08T10:26:35.370Z,65.65
2023-04-08T10:27:35.359Z,65.84
2023-04-08T10:28:35.364Z,65.65
2023-04-08T10:29:35.355Z,65.46
2023-04-08T10:30:35.339Z,65.56
2023-04-08T10:31:35.337Z,65.65
2023-04-08T10:32:35.384Z,65.94
2023-04-08T10:33:37.197Z,65.46
2023-04-08T10:34:35.372Z,65.56
2023-04-08T10:35:35.333Z,65.94
2023-04-08T10:36:35.327Z,66.13
2023-04-08T10:37:35.324Z,65.84
2023-04-08T10:38:35.341Z,65.56
2023-04-08T10:39:36.898Z,65.75
2023-04-08T10:40:35.315Z,65.56
2023-04-08T10:41:35.328Z,65.65
2023-04-08T10:42:35.297Z,65.75
2023-04-08T10:43:35.327Z,65.65
2023-04-08T10:44:35.310Z,65.94
2023-04-08T10:45:35.297Z,65.84
2023-04-08T10:46:35.324Z,66.13
2023-04-08T10:47:35.306Z,66.13
2023-04-08T10:48:35.283Z,65.84
2023-04-08T10:49:35.284Z,66.03
2023-04-08T10:50:35.288Z,65.84
2023-04-08T10:51:35.311Z,65.84
2023-04-08T10:52:35.278Z,65.94
2023-04-08T10:53:35.277Z,65.94
2023-04-08T10:54:35.279Z,65.84
2023-04-08T10:55:35.258Z,65.84
2023-04-08T10:56:35.290Z,66.13
2023-04-08T10:57:35.242Z,65.94
2023-04-08T10:58:35.260Z,66.13
2023-04-08T10:59:35.251Z,66.03
2023-04-08T11:00:35.276Z,66.13
2023-04-08T11:01:35.325Z,66.13
2023-04-08T11:02:35.419Z,65.94
2023-04-08T11:03:35.570Z,65.84
2023-04-08T11:04:35.346Z,65.81
2023-04-08T11:05:35.223Z,65.84
2023-04-08T11:06:35.286Z,66.00
2023-04-08T11:07:35.226Z,65.94
2023-04-08T11:08:35.235Z,65.94
2023-04-08T11:09:35.237Z,65.84
2023-04-08T11:10:35.215Z,66.10
2023-04-08T11:11:35.219Z,65.72
2023-04-08T11:12:35.225Z,65.94
2023-04-08T11:13:35.207Z,65.84
2023-04-08T11:14:35.200Z,66.13
2023-04-08T11:15:35.231Z,66.03
2023-04-08T11:16:35.238Z,65.72
2023-04-08T11:17:35.209Z,66.10
2023-04-08T11:18:35.196Z,66.10
2023-04-08T11:19:35.201Z,66.03
2023-04-08T11:20:35.179Z,65.56
2023-04-08T11:21:35.168Z,65.75
2023-04-08T11:22:35.197Z,66.10
2023-04-08T11:23:35.180Z,65.75
2023-04-08T11:24:35.171Z,65.46
2023-04-08T11:25:35.165Z,65.94
2023-04-08T11:26:35.153Z,65.75
2023-04-08T11:27:35.156Z,66.13
2023-04-08T11:28:35.152Z,65.94
2023-04-08T11:29:35.155Z,65.81
2023-04-08T11:30:35.139Z,65.94
2023-04-08T11:31:35.229Z,66.00
2023-04-08T11:32:35.175Z,65.91
2023-04-08T11:33:35.194Z,65.94
2023-04-08T11:34:35.140Z,65.94
2023-04-08T11:35:35.178Z,66.03
2023-04-08T11:36:35.124Z,65.94
2023-04-08T11:37:35.112Z,66.03
2023-04-08T11:38:35.146Z,65.84
2023-04-08T11:39:35.134Z,66.03
2023-04-08T11:40:35.128Z,65.94
2023-04-08T11:41:35.116Z,65.94
2023-04-08T11:42:35.114Z,66.00
2023-04-08T11:43:35.110Z,66.03
2023-04-08T11:44:35.084Z,65.72
2023-04-08T11:45:35.116Z,65.65
2023-04-08T11:46:35.185Z,65.72
2023-04-08T11:47:35.130Z,66.13
2023-04-08T11:48:35.089Z,65.84
2023-04-08T11:49:35.087Z,65.75
2023-04-08T11:50:35.103Z,65.84
2023-04-08T11:51:35.065Z,65.75
2023-04-08T11:52:35.071Z,65.84
2023-04-08T11:53:35.074Z,65.94
2023-04-08T11:54:35.079Z,65.94
2023-04-08T11:55:35.061Z,65.94
2023-04-08T11:56:35.116Z,65.91
2023-04-08T11:57:35.063Z,65.94
2023-04-08T11:58:35.120Z,65.94
2023-04-08T11:59:35.106Z,65.91
2023-04-08T12:00:35.043Z,65.84
2023-04-08T12:01:35.192Z,65.84
2023-04-08T12:02:35.174Z,65.91
2023-04-08T12:03:35.289Z,65.75
2023-04-08T12:04:35.165Z,65.75
2023-04-08T12:05:35.087Z,65.91
2023-04-08T12:06:35.097Z,66.03
2023-04-08T12:07:35.019Z,65.81
2023-04-08T12:08:35.091Z,65.72
2023-04-08T12:09:35.082Z,65.81
2023-04-08T12:10:35.074Z,65.84
2023-04-08T12:11:35.086Z,66.00
2023-04-08T12:12:35.110Z,65.91
2023-04-08T12:13:35.003Z,65.94
2023-04-08T12:14:34.994Z,65.94
2023-04-08T12:15:35.002Z,65.84
2023-04-08T12:16:35.109Z,66.00
2023-04-08T12:17:34.996Z,65.91
2023-04-08T12:18:35.113Z,66.00
2023-04-08T12:19:36.498Z,65.94
2023-04-08T12:20:34.983Z,65.94
2023-04-08T12:21:34.997Z,65.81
2023-04-08T12:22:34.981Z,65.81
2023-04-08T12:23:34.968Z,66.00
2023-04-08T12:24:34.967Z,65.84
2023-04-08T12:25:34.970Z,66.00
2023-04-08T12:26:35.014Z,66.00
2023-04-08T12:27:34.950Z,65.91
2023-04-08T12:28:34.939Z,65.72
2023-04-08T12:29:34.955Z,66.00
2023-04-08T12:30:34.947Z,65.75
2023-04-08T12:31:35.021Z,65.52
2023-04-08T12:32:34.976Z,65.56
2023-04-08T12:33:34.950Z,65.72
2023-04-08T12:34:34.933Z,65.52
2023-04-08T12:35:34.975Z,65.56
2023-04-08T12:36:34.925Z,65.91
2023-04-08T12:37:34.952Z,65.72
2023-04-08T12:38:34.913Z,65.91
2023-04-08T12:39:34.914Z,65.52
2023-04-08T12:40:34.927Z,65.65
2023-04-08T12:41:34.900Z,65.91
2023-04-08T12:42:34.921Z,65.72
2023-04-08T12:43:34.917Z,65.75
2023-04-08T12:44:34.906Z,65.91
2023-04-08T12:45:34.892Z,65.91
2023-04-08T12:46:34.950Z,65.75
2023-04-08T12:47:34.921Z,65.56
2023-04-08T12:48:34.883Z,65.65
2023-04-08T12:49:48.318Z,65.52
2023-04-08T12:50:34.895Z,65.52
2023-04-08T12:51:34.900Z,65.75
2023-04-08T12:52:34.872Z,66.00